Time;durP1;ratioP1;P1;durP2;ratioP2;P2;SDS_P1;SDS_P2;PMS_P1;PMS_P2;Temp;Humidity;BMP_temperature;BMP_pressure;BME280_temperature;BME280_humidity;BME280_pressure;Samples;Min_cycle;Max_cycle;Signal;HPM_P1;HPM_P2
2022/04/13 00:00:45;;;;;;;0.00;0.00;;;;;;;;;;1742047;28;20245;-58
2022/04/13 00:01:38;;;;;;;0.00;0.00;;;;;;;;;;1745301;28;20247;-61
2022/04/13 00:02:29;;;;;;;0.00;0.00;;;;;;;;;;1743832;28;20207;-60
2022/04/13 00:03:22;;;;;;;0.00;0.00;;;;;;;;;;1745337;28;20203;-60
2022/04/13 00:04:14;;;;;;;0.00;0.00;;;;;;;;;;1743528;28;20262;-60
2022/04/13 00:05:07;;;;;;;0.00;0.00;;;;;;;;;;1745344;28;20716;-60
2022/04/13 00:05:58;;;;;;;0.00;0.00;;;;;;;;;;1742061;28;20746;-59
2022/04/13 00:06:50;;;;;;;0.00;0.00;;;;;;;;;;1745515;28;20317;-60
2022/04/13 00:07:41;;;;;;;0.00;0.00;;;;;;;;;;1743891;28;20206;-60
2022/04/13 00:08:34;;;;;;;0.00;0.00;;;;;;;;;;1745557;28;20229;-60
2022/04/13 00:09:25;;;;;;;0.00;0.00;;;;;;;;;;1744396;28;20210;-61
2022/04/13 00:10:18;;;;;;;0.00;0.00;;;;;;;;;;1742661;28;20217;-60
2022/04/13 00:11:09;;;;;;;0.00;0.00;;;;;;;;;;1743817;28;20226;-61
2022/04/13 00:12:03;;;;;;;0.00;0.00;;;;;;;;;;1745298;28;20248;-59
2022/04/13 00:12:54;;;;;;;0.00;0.00;;;;;;;;;;1744222;28;20210;-60
2022/04/13 00:13:46;;;;;;;0.00;0.00;;;;;;;;;;1745027;28;20556;-60
2022/04/13 00:14:38;;;;;;;0.00;0.00;;;;;;;;;;1744378;28;20703;-60
2022/04/13 00:15:30;;;;;;;0.00;0.00;;;;;;;;;;1742773;28;20202;-60
2022/04/13 00:16:21;;;;;;;0.00;0.00;;;;;;;;;;1744117;28;20252;-60
2022/04/13 00:17:13;;;;;;;0.00;0.00;;;;;;;;;;1743987;28;20285;-60
2022/04/13 00:18:05;;;;;;;0.00;0.00;;;;;;;;;;1744879;28;20206;-60
2022/04/13 00:18:59;;;;;;;0.00;0.00;;;;;;;;;;1744904;28;20225;-59
2022/04/13 00:19:50;;;;;;;0.00;0.00;;;;;;;;;;1744936;28;20719;-60
2022/04/13 00:20:42;;;;;;;0.00;0.00;;;;;;;;;;1742119;28;20240;-60
2022/04/13 00:21:33;;;;;;;0.00;0.00;;;;;;;;;;1741927;28;20194;-61
2022/04/13 00:22:26;;;;;;;0.00;0.00;;;;;;;;;;1744523;28;20267;-60
2022/04/13 00:23:17;;;;;;;0.00;0.00;;;;;;;;;;1744652;28;20217;-60
2022/04/13 00:24:11;;;;;;;0.00;0.00;;;;;;;;;;1744356;28;20251;-60
2022/04/13 00:25:02;;;;;;;0.00;0.00;;;;;;;;;;1745283;28;20325;-60
2022/04/13 00:25:54;;;;;;;0.00;0.00;;;;;;;;;;1741801;28;20552;-60
2022/04/13 00:26:45;;;;;;;0.00;0.00;;;;;;;;;;1745141;28;20229;-60
2022/04/13 00:27:38;;;;;;;0.00;0.00;;;;;;;;;;1744620;28;20208;-59
2022/04/13 00:28:29;;;;;;;0.00;0.00;;;;;;;;;;1746653;28;20209;-60
2022/04/13 00:29:21;;;;;;;0.00;0.00;;;;;;;;;;1744951;28;20206;-60
2022/04/13 00:30:15;;;;;;;0.00;0.00;;;;;;;;;;1744124;28;20596;-60
2022/04/13 00:31:07;;;;;;;0.00;0.00;;;;;;;;;;1744724;28;20589;-60
2022/04/13 00:31:59;;;;;;;0.00;0.00;;;;;;;;;;1749238;28;20205;-59
2022/04/13 00:32:51;;;;;;;0.00;0.00;;;;;;;;;;1749209;28;20594;-60
2022/04/13 00:33:42;;;;;;;0.00;0.00;;;;;;;;;;1748862;28;20198;-58
2022/04/13 00:34:36;;;;;;;0.00;0.00;;;;;;;;;;1745745;28;20260;-60
2022/04/13 00:35:27;;;;;;;0.00;0.00;;;;;;;;;;1743558;28;21997;-59
2022/04/13 00:36:19;;;;;;;0.00;0.00;;;;;;;;;;1744570;28;20224;-60
2022/04/13 00:37:10;;;;;;;0.00;0.00;;;;;;;;;;1746603;28;20233;-60
2022/04/13 00:38:03;;;;;;;0.00;0.00;;;;;;;;;;1745459;28;20202;-60
2022/04/13 00:38:54;;;;;;;0.00;0.00;;;;;;;;;;1746138;28;20509;-60
2022/04/13 00:39:46;;;;;;;0.00;0.00;;;;;;;;;;1746179;28;20205;-59
2022/04/13 00:40:39;;;;;;;0.00;0.00;;;;;;;;;;1743316;28;20199;-59
2022/04/13 00:41:31;;;;;;;0.00;0.00;;;;;;;;;;1746326;28;20555;-60
2022/04/13 00:42:22;;;;;;;0.00;0.00;;;;;;;;;;1744830;28;20198;-61
2022/04/13 00:43:14;;;;;;;0.00;0.00;;;;;;;;;;1746458;28;20229;-60
2022/04/13 00:44:06;;;;;;;0.00;0.00;;;;;;;;;;1745246;28;20207;-59
2022/04/13 00:44:59;;;;;;;0.00;0.00;;;;;;;;;;1746347;28;20243;-60
2022/04/13 00:45:51;;;;;;;0.00;0.00;;;;;;;;;;1742578;28;20242;-61
2022/04/13 00:46:43;;;;;;;0.00;0.00;;;;;;;;;;1746142;28;20271;-60
2022/04/13 00:47:38;;;;;;;0.00;0.00;;;;;;;;;;1745545;28;20653;-59
2022/04/13 00:48:33;;;;;;;0.00;0.00;;;;;;;;;;1745697;28;20260;-60
2022/04/13 00:49:25;;;;;;;0.00;0.00;;;;;;;;;;1745936;28;20633;-59
2022/04/13 00:50:21;;;;;;;0.00;0.00;;;;;;;;;;1746316;28;20750;-59
2022/04/13 00:51:12;;;;;;;0.00;0.00;;;;;;;;;;1743567;28;20233;-60
2022/04/13 00:52:05;;;;;;;0.00;0.00;;;;;;;;;;1746618;28;20195;-60
2022/04/13 00:52:58;;;;;;;0.00;0.00;;;;;;;;;;1745695;28;20202;-60
2022/04/13 00:53:51;;;;;;;0.00;0.00;;;;;;;;;;1746149;28;20198;-60
2022/04/13 00:54:43;;;;;;;0.00;0.00;;;;;;;;;;1745031;28;20218;-61
2022/04/13 00:55:37;;;;;;;0.00;0.00;;;;;;;;;;1743449;28;20300;-59
2022/04/13 00:56:29;;;;;;;0.00;0.00;;;;;;;;;;1746038;28;20222;-60
2022/04/13 00:57:23;;;;;;;0.00;0.00;;;;;;;;;;1746173;28;20206;-60
2022/04/13 00:58:15;;;;;;;0.00;0.00;;;;;;;;;;1742872;28;20644;-60
2022/04/13 00:59:10;;;;;;;0.00;0.00;;;;;;;;;;1744286;28;20656;-59
2022/04/13 01:00:02;;;;;;;0.10;0.10;;;;;;;;;;1746223;28;20236;-59
2022/04/13 01:00:54;;;;;;;0.00;0.00;;;;;;;;;;1742731;28;20237;-59
2022/04/13 01:01:46;;;;;;;0.00;0.00;;;;;;;;;;1746064;28;20224;-59
2022/04/13 01:02:39;;;;;;;0.00;0.00;;;;;;;;;;1746049;28;20198;-60
2022/04/13 01:03:31;;;;;;;0.00;0.00;;;;;;;;;;1746363;28;20202;-60
2022/04/13 01:04:23;;;;;;;0.00;0.00;;;;;;;;;;1744992;28;20203;-60
2022/04/13 01:05:15;;;;;;;0.00;0.00;;;;;;;;;;1744654;28;20207;-59
2022/04/13 01:06:09;;;;;;;0.10;0.10;;;;;;;;;;1744077;28;20241;-59
2022/04/13 01:07:00;;;;;;;0.00;0.00;;;;;;;;;;1738998;28;20214;-60
2022/04/13 01:07:53;;;;;;;0.00;0.00;;;;;;;;;;1744371;28;20820;-59
2022/04/13 01:08:45;;;;;;;0.00;0.00;;;;;;;;;;1746481;28;20665;-60
2022/04/13 01:09:40;;;;;;;0.00;0.00;;;;;;;;;;1745303;28;20285;-60
2022/04/13 01:10:31;;;;;;;0.00;0.00;;;;;;;;;;1743515;28;20747;-60
2022/04/13 01:11:24;;;;;;;0.00;0.00;;;;;;;;;;1744667;28;20683;-59
2022/04/13 01:12:15;;;;;;;0.00;0.00;;;;;;;;;;1745311;28;20210;-60
2022/04/13 01:13:07;;;;;;;0.00;0.00;;;;;;;;;;1744482;28;20317;-60
2022/04/13 01:13:58;;;;;;;0.00;0.00;;;;;;;;;;1743835;28;20263;-60
2022/04/13 01:14:54;;;;;;;0.00;0.00;;;;;;;;;;1745358;28;20226;-60
2022/04/13 01:15:45;;;;;;;0.00;0.00;;;;;;;;;;1742674;28;20241;-59
2022/04/13 01:16:39;;;;;;;0.00;0.00;;;;;;;;;;1749089;28;20237;-61
2022/04/13 01:17:30;;;;;;;0.00;0.00;;;;;;;;;;1751395;28;20619;-59
2022/04/13 01:18:22;;;;;;;0.00;0.00;;;;;;;;;;1753167;28;20204;-60
2022/04/13 01:19:16;;;;;;;0.00;0.00;;;;;;;;;;1752542;28;20205;-60
2022/04/13 01:20:10;;;;;;;0.00;0.00;;;;;;;;;;1752176;28;20791;-60
2022/04/13 01:21:01;;;;;;;0.00;0.00;;;;;;;;;;1750323;28;20618;-60
2022/04/13 01:21:59;;;;;;;0.00;0.00;;;;;;;;;;1753343;28;20462;-60
2022/04/13 01:22:51;;;;;;;0.00;0.00;;;;;;;;;;1751857;28;20198;-61
2022/04/13 01:23:43;;;;;;;0.00;0.00;;;;;;;;;;1753242;28;20541;-61
2022/04/13 01:24:35;;;;;;;0.03;0.03;;;;;;;;;;1751727;28;20489;-60
2022/04/13 01:25:27;;;;;;;0.00;0.00;;;;;;;;;;1750258;28;20736;-60
2022/04/13 01:26:19;;;;;;;0.00;0.00;;;;;;;;;;1751975;28;20274;-61
2022/04/13 01:27:10;;;;;;;0.00;0.00;;;;;;;;;;1753121;28;20201;-58
2022/04/13 01:28:03;;;;;;;0.00;0.00;;;;;;;;;;1751513;28;20290;-58
2022/04/13 01:28:54;;;;;;;0.00;0.00;;;;;;;;;;1753144;28;20858;-58
2022/04/13 01:29:48;;;;;;;0.00;0.00;;;;;;;;;;1749773;28;20194;-60
2022/04/13 01:30:39;;;;;;;0.03;0.03;;;;;;;;;;1753220;28;20211;-60
2022/04/13 01:31:32;;;;;;;0.00;0.00;;;;;;;;;;1753034;28;20229;-59
2022/04/13 01:32:23;;;;;;;0.05;0.05;;;;;;;;;;1751103;28;20206;-59
2022/04/13 01:33:15;;;;;;;0.00;0.00;;;;;;;;;;1752951;28;20712;-60
2022/04/13 01:34:07;;;;;;;0.00;0.00;;;;;;;;;;1751672;28;20784;-60
2022/04/13 01:34:59;;;;;;;0.00;0.00;;;;;;;;;;1753208;28;21051;-59
2022/04/13 01:35:50;;;;;;;0.00;0.00;;;;;;;;;;1749801;28;20242;-60
2022/04/13 01:36:42;;;;;;;0.00;0.00;;;;;;;;;;1753287;28;20197;-60
2022/04/13 01:37:34;;;;;;;0.00;0.00;;;;;;;;;;1752666;28;20223;-60
2022/04/13 01:38:28;;;;;;;0.03;0.03;;;;;;;;;;1752219;28;20359;-60
2022/04/13 01:39:20;;;;;;;0.00;0.00;;;;;;;;;;1751520;28;20194;-60
2022/04/13 01:40:13;;;;;;;0.00;0.00;;;;;;;;;;1751499;28;20567;-60
2022/04/13 01:41:05;;;;;;;0.00;0.00;;;;;;;;;;1750816;28;20241;-60
2022/04/13 01:41:56;;;;;;;0.00;0.00;;;;;;;;;;1753425;28;20674;-59
2022/04/13 01:42:49;;;;;;;0.00;0.00;;;;;;;;;;1752776;28;20201;-60
2022/04/13 01:43:40;;;;;;;0.00;0.00;;;;;;;;;;1745800;28;20223;-60
2022/04/13 01:44:32;;;;;;;0.00;0.00;;;;;;;;;;1750110;28;20197;-60
2022/04/13 01:45:24;;;;;;;0.00;0.00;;;;;;;;;;1750055;28;20406;-60
2022/04/13 01:46:16;;;;;;;0.00;0.00;;;;;;;;;;1752154;28;20241;-60
2022/04/13 01:47:07;;;;;;;0.00;0.00;;;;;;;;;;1753092;28;20243;-60
2022/04/13 01:47:59;;;;;;;0.00;0.00;;;;;;;;;;1752260;28;20674;-60
2022/04/13 01:48:50;;;;;;;0.00;0.00;;;;;;;;;;1753246;28;20213;-60
2022/04/13 01:49:45;;;;;;;0.00;0.00;;;;;;;;;;1751587;28;20198;-60
2022/04/13 01:50:36;;;;;;;0.00;0.00;;;;;;;;;;1740412;28;20233;-60
2022/04/13 01:51:28;;;;;;;0.00;0.00;;;;;;;;;;1748903;28;20263;-60
2022/04/13 01:52:19;;;;;;;0.00;0.00;;;;;;;;;;1752931;28;20198;-60
2022/04/13 01:53:11;;;;;;;0.00;0.00;;;;;;;;;;1753527;28;20206;-60
2022/04/13 01:54:04;;;;;;;0.00;0.00;;;;;;;;;;1752379;28;20659;-60
2022/04/13 01:54:56;;;;;;;0.00;0.00;;;;;;;;;;1749887;28;20237;-61
2022/04/13 01:55:48;;;;;;;0.00;0.00;;;;;;;;;;1749769;28;20759;-61
2022/04/13 01:56:40;;;;;;;0.00;0.00;;;;;;;;;;1753457;28;20598;-60
2022/04/13 01:57:31;;;;;;;0.00;0.00;;;;;;;;;;1751010;28;20353;-60
2022/04/13 01:58:23;;;;;;;0.00;0.00;;;;;;;;;;1752943;28;20197;-60
2022/04/13 01:59:14;;;;;;;0.00;0.00;;;;;;;;;;1751305;28;20298;-59
2022/04/13 02:00:08;;;;;;;0.00;0.00;;;;;;;;;;1752984;28;20235;-60
2022/04/13 02:00:59;;;;;;;0.00;0.00;;;;;;;;;;1749466;28;20234;-60
2022/04/13 02:01:51;;;;;;;0.00;0.00;;;;;;;;;;1753249;28;20201;-60
2022/04/13 02:02:42;;;;;;;0.00;0.00;;;;;;;;;;1752324;28;20679;-60
2022/04/13 02:03:35;;;;;;;0.00;0.00;;;;;;;;;;1753011;28;20417;-61
2022/04/13 02:04:27;;;;;;;0.00;0.00;;;;;;;;;;1751152;28;20202;-59
2022/04/13 02:05:19;;;;;;;0.10;0.10;;;;;;;;;;1751387;28;20198;-60
2022/04/13 02:06:10;;;;;;;0.00;0.00;;;;;;;;;;1751835;28;20294;-60
2022/04/13 02:07:02;;;;;;;0.00;0.00;;;;;;;;;;1753740;28;20209;-61
2022/04/13 02:07:53;;;;;;;0.00;0.00;;;;;;;;;;1752356;28;20618;-61
2022/04/13 02:08:46;;;;;;;0.00;0.00;;;;;;;;;;1753231;28;20208;-60
2022/04/13 02:09:38;;;;;;;0.00;0.00;;;;;;;;;;1751986;28;20789;-59
2022/04/13 02:10:30;;;;;;;0.00;0.00;;;;;;;;;;1749808;28;20228;-61
2022/04/13 02:11:22;;;;;;;0.00;0.00;;;;;;;;;;1752650;28;20205;-60
2022/04/13 02:12:14;;;;;;;0.00;0.00;;;;;;;;;;1753101;28;20651;-60
2022/04/13 02:13:05;;;;;;;0.00;0.00;;;;;;;;;;1752464;28;20292;-60
2022/04/13 02:13:58;;;;;;;0.00;0.00;;;;;;;;;;1752085;28;20208;-60
2022/04/13 02:14:49;;;;;;;0.00;0.00;;;;;;;;;;1752755;28;20218;-60
2022/04/13 02:15:41;;;;;;;0.00;0.00;;;;;;;;;;1750429;28;20317;-61
2022/04/13 02:16:32;;;;;;;0.00;0.00;;;;;;;;;;1749192;28;20278;-61
2022/04/13 02:17:25;;;;;;;0.00;0.00;;;;;;;;;;1745069;28;20210;-59
2022/04/13 02:18:16;;;;;;;0.00;0.00;;;;;;;;;;1746684;28;20210;-60
2022/04/13 02:19:08;;;;;;;0.00;0.00;;;;;;;;;;1745551;28;20202;-59
2022/04/13 02:19:59;;;;;;;0.00;0.00;;;;;;;;;;1746431;28;20202;-59
2022/04/13 02:20:51;;;;;;;0.00;0.00;;;;;;;;;;1742128;28;20236;-60
2022/04/13 02:21:43;;;;;;;0.00;0.00;;;;;;;;;;1746518;28;20209;-59
2022/04/13 02:22:36;;;;;;;0.00;0.00;;;;;;;;;;1745059;28;20949;-60
2022/04/13 02:23:27;;;;;;;0.00;0.00;;;;;;;;;;1745953;28;20229;-60
2022/04/13 02:24:19;;;;;;;0.00;0.00;;;;;;;;;;1745201;28;20213;-60
2022/04/13 02:25:12;;;;;;;0.00;0.00;;;;;;;;;;1746088;28;20202;-61
2022/04/13 02:26:04;;;;;;;0.00;0.00;;;;;;;;;;1742223;28;20557;-60
2022/04/13 02:26:55;;;;;;;0.00;0.00;;;;;;;;;;1746294;28;20213;-60
2022/04/13 02:27:48;;;;;;;0.00;0.00;;;;;;;;;;1745483;28;20230;-60
2022/04/13 02:28:39;;;;;;;0.00;0.00;;;;;;;;;;1746015;28;20206;-61
2022/04/13 02:29:34;;;;;;;0.00;0.00;;;;;;;;;;1744822;28;20252;-60
2022/04/13 02:30:25;;;;;;;0.00;0.00;;;;;;;;;;1743361;28;20285;-60
2022/04/13 02:31:17;;;;;;;0.00;0.00;;;;;;;;;;1744970;28;20256;-60
2022/04/13 02:32:09;;;;;;;0.00;0.00;;;;;;;;;;1752114;28;20209;-59
2022/04/13 02:33:01;;;;;;;0.00;0.00;;;;;;;;;;1748375;28;20208;-60
2022/04/13 02:33:54;;;;;;;0.00;0.00;;;;;;;;;;1748355;28;20712;-60
2022/04/13 02:34:48;;;;;;;0.00;0.00;;;;;;;;;;1746102;28;20198;-61
2022/04/13 02:35:39;;;;;;;0.00;0.00;;;;;;;;;;1741533;28;20605;-61
2022/04/13 02:36:32;;;;;;;0.00;0.00;;;;;;;;;;1745866;28;20345;-61
2022/04/13 02:37:23;;;;;;;0.00;0.00;;;;;;;;;;1745161;28;20206;-62
2022/04/13 02:38:16;;;;;;;0.00;0.00;;;;;;;;;;1745920;28;20198;-61
2022/04/13 02:39:07;;;;;;;0.10;0.10;;;;;;;;;;1745710;28;20733;-61
2022/04/13 02:40:00;;;;;;;0.00;0.00;;;;;;;;;;1745506;28;20202;-60
2022/04/13 02:40:52;;;;;;;0.00;0.00;;;;;;;;;;1741094;28;20250;-61
2022/04/13 02:41:45;;;;;;;0.00;0.00;;;;;;;;;;1745034;28;20724;-61
2022/04/13 02:42:36;;;;;;;0.00;0.00;;;;;;;;;;1744950;28;20213;-61
2022/04/13 02:43:29;;;;;;;0.00;0.00;;;;;;;;;;1745992;28;20198;-61
2022/04/13 02:44:21;;;;;;;0.00;0.00;;;;;;;;;;1744641;28;20236;-61
2022/04/13 02:45:13;;;;;;;0.00;0.00;;;;;;;;;;1745858;28;20261;-61
2022/04/13 02:46:04;;;;;;;0.00;0.00;;;;;;;;;;1741052;28;20250;-61
2022/04/13 02:46:57;;;;;;;0.00;0.00;;;;;;;;;;1745902;28;20572;-60
2022/04/13 02:47:48;;;;;;;0.00;0.00;;;;;;;;;;1744034;28;20581;-61
2022/04/13 02:48:40;;;;;;;0.00;0.00;;;;;;;;;;1745490;28;20202;-60
2022/04/13 02:49:31;;;;;;;0.00;0.00;;;;;;;;;;1744855;28;20206;-61
2022/04/13 02:50:23;;;;;;;0.03;0.03;;;;;;;;;;1741815;28;20221;-60
2022/04/13 02:51:15;;;;;;;0.00;0.00;;;;;;;;;;1744277;28;20202;-61
2022/04/13 02:52:07;;;;;;;0.00;0.00;;;;;;;;;;1745646;28;20766;-60
2022/04/13 02:52:59;;;;;;;0.00;0.00;;;;;;;;;;1745021;28;20236;-60
2022/04/13 02:53:50;;;;;;;0.00;0.00;;;;;;;;;;1745149;28;20203;-60
2022/04/13 02:54:42;;;;;;;0.00;0.00;;;;;;;;;;1744689;28;20202;-61
2022/04/13 02:55:34;;;;;;;0.00;0.00;;;;;;;;;;1742740;28;20246;-59
2022/04/13 02:56:27;;;;;;;0.00;0.00;;;;;;;;;;1745528;28;20710;-60
2022/04/13 02:57:18;;;;;;;0.00;0.00;;;;;;;;;;1745167;28;20664;-61
2022/04/13 02:58:11;;;;;;;0.00;0.00;;;;;;;;;;1745775;28;20222;-61
2022/04/13 02:59:02;;;;;;;0.00;0.00;;;;;;;;;;1743781;28;20871;-61
2022/04/13 02:59:54;;;;;;;0.00;0.00;;;;;;;;;;1742004;28;20292;-60
2022/04/13 03:00:47;;;;;;;0.00;0.00;;;;;;;;;;1730877;28;20643;-60
2022/04/13 03:01:39;;;;;;;0.00;0.00;;;;;;;;;;1745228;28;20206;-60
2022/04/13 03:02:30;;;;;;;0.00;0.00;;;;;;;;;;1742381;28;20585;-60
2022/04/13 03:03:21;;;;;;;0.00;0.00;;;;;;;;;;1743159;28;20268;-61
2022/04/13 03:04:16;;;;;;;0.00;0.00;;;;;;;;;;1744951;28;20206;-60
2022/04/13 03:05:07;;;;;;;0.00;0.00;;;;;;;;;;1743413;28;20214;-60
2022/04/13 03:06:00;;;;;;;0.00;0.00;;;;;;;;;;1743349;28;20652;-61
2022/04/13 03:06:51;;;;;;;0.00;0.00;;;;;;;;;;1744877;28;20347;-60
2022/04/13 03:07:43;;;;;;;0.00;0.00;;;;;;;;;;1744205;28;20206;-61
2022/04/13 03:08:34;;;;;;;0.00;0.00;;;;;;;;;;1745489;28;20206;-60
2022/04/13 03:09:27;;;;;;;0.00;0.00;;;;;;;;;;1744283;28;20202;-61
2022/04/13 03:10:19;;;;;;;0.00;0.00;;;;;;;;;;1743701;28;20518;-61
2022/04/13 03:11:11;;;;;;;0.00;0.00;;;;;;;;;;1743179;28;20230;-61
2022/04/13 03:12:05;;;;;;;0.00;0.00;;;;;;;;;;1745712;28;20350;-61
2022/04/13 03:12:57;;;;;;;0.00;0.00;;;;;;;;;;1743281;28;20206;-61
2022/04/13 03:13:48;;;;;;;0.00;0.00;;;;;;;;;;1744844;28;20243;-61
2022/04/13 03:14:40;;;;;;;0.00;0.00;;;;;;;;;;1745063;28;20302;-60
2022/04/13 03:15:32;;;;;;;0.00;0.00;;;;;;;;;;1742516;28;20203;-61
2022/04/13 03:16:24;;;;;;;0.00;0.00;;;;;;;;;;1744305;28;20252;-60
2022/04/13 03:17:15;;;;;;;0.00;0.00;;;;;;;;;;1745255;28;20632;-61
2022/04/13 03:18:07;;;;;;;0.10;0.10;;;;;;;;;;1745662;28;20202;-61
2022/04/13 03:18:58;;;;;;;0.00;0.00;;;;;;;;;;1744318;28;20549;-59
2022/04/13 03:19:51;;;;;;;0.00;0.00;;;;;;;;;;1743994;28;20288;-61
2022/04/13 03:20:42;;;;;;;0.00;0.00;;;;;;;;;;1741927;28;20661;-61
2022/04/13 03:21:36;;;;;;;0.00;0.00;;;;;;;;;;1745641;28;20286;-60
2022/04/13 03:22:27;;;;;;;0.00;0.00;;;;;;;;;;1744450;28;20202;-61
2022/04/13 03:23:20;;;;;;;0.10;0.10;;;;;;;;;;1745719;28;20202;-61
2022/04/13 03:24:11;;;;;;;0.00;0.00;;;;;;;;;;1744643;28;20217;-59
2022/04/13 03:25:04;;;;;;;0.00;0.00;;;;;;;;;;1745677;28;20209;-61
2022/04/13 03:25:56;;;;;;;0.00;0.00;;;;;;;;;;1739913;28;20234;-60
2022/04/13 03:26:48;;;;;;;0.00;0.00;;;;;;;;;;1745495;28;20198;-60
2022/04/13 03:27:41;;;;;;;0.00;0.00;;;;;;;;;;1744082;28;20213;-60
2022/04/13 03:28:33;;;;;;;0.00;0.00;;;;;;;;;;1745784;28;20666;-61
2022/04/13 03:29:24;;;;;;;0.00;0.00;;;;;;;;;;1744467;28;20205;-61
2022/04/13 03:30:18;;;;;;;0.00;0.00;;;;;;;;;;1747125;28;20572;-60
2022/04/13 03:31:09;;;;;;;0.00;0.00;;;;;;;;;;1742443;28;20257;-61
2022/04/13 03:32:01;;;;;;;0.00;0.00;;;;;;;;;;1747336;28;20493;-61
2022/04/13 03:32:52;;;;;;;0.00;0.00;;;;;;;;;;1748030;28;20212;-61
2022/04/13 03:33:44;;;;;;;0.00;0.00;;;;;;;;;;1747552;28;20208;-61
2022/04/13 03:34:36;;;;;;;0.00;0.00;;;;;;;;;;1745152;28;20202;-61
2022/04/13 03:35:28;;;;;;;0.00;0.00;;;;;;;;;;1743008;28;21671;-61
2022/04/13 03:36:20;;;;;;;0.00;0.00;;;;;;;;;;1744225;28;20222;-60
2022/04/13 03:37:11;;;;;;;0.00;0.00;;;;;;;;;;1745505;28;20260;-60
2022/04/13 03:38:03;;;;;;;0.00;0.00;;;;;;;;;;1744017;28;20305;-60
2022/04/13 03:38:55;;;;;;;0.00;0.00;;;;;;;;;;1744611;28;20231;-61
2022/04/13 03:39:47;;;;;;;0.00;0.00;;;;;;;;;;1744798;28;20554;-60
2022/04/13 03:40:38;;;;;;;0.00;0.00;;;;;;;;;;1741637;28;20328;-60
2022/04/13 03:41:30;;;;;;;0.00;0.00;;;;;;;;;;1745033;28;21508;-61
2022/04/13 03:42:21;;;;;;;0.00;0.00;;;;;;;;;;1744278;28;20209;-61
2022/04/13 03:43:15;;;;;;;0.00;0.00;;;;;;;;;;1741839;28;20292;-61
2022/04/13 03:44:09;;;;;;;0.00;0.00;;;;;;;;;;1743641;28;20687;-61
2022/04/13 03:45:03;;;;;;;0.00;0.00;;;;;;;;;;1744633;28;20210;-61
2022/04/13 03:45:54;;;;;;;0.00;0.00;;;;;;;;;;1741309;28;20234;-61
2022/04/13 03:46:46;;;;;;;0.00;0.00;;;;;;;;;;1745073;28;20275;-61
2022/04/13 03:47:38;;;;;;;0.00;0.00;;;;;;;;;;1744566;28;20542;-61
2022/04/13 03:48:30;;;;;;;0.00;0.00;;;;;;;;;;1745465;28;20794;-60
2022/04/13 03:49:21;;;;;;;0.00;0.00;;;;;;;;;;1744894;28;20202;-61
2022/04/13 03:50:14;;;;;;;0.00;0.00;;;;;;;;;;1739351;28;20234;-60
2022/04/13 03:51:05;;;;;;;0.00;0.00;;;;;;;;;;1739331;28;20582;-60
2022/04/13 03:51:57;;;;;;;0.00;0.00;;;;;;;;;;1745480;28;20700;-60
2022/04/13 03:52:48;;;;;;;0.00;0.00;;;;;;;;;;1743975;28;20205;-61
2022/04/13 03:53:40;;;;;;;0.00;0.00;;;;;;;;;;1745256;28;20589;-61
2022/04/13 03:54:31;;;;;;;0.00;0.00;;;;;;;;;;1744169;28;20210;-60
2022/04/13 03:55:24;;;;;;;0.00;0.00;;;;;;;;;;1744240;28;20209;-61
2022/04/13 03:56:18;;;;;;;0.00;0.00;;;;;;;;;;1742936;28;20240;-60
2022/04/13 03:57:10;;;;;;;0.00;0.00;;;;;;;;;;1744414;28;20309;-60
2022/04/13 03:58:01;;;;;;;0.00;0.00;;;;;;;;;;1744702;28;20210;-60
2022/04/13 03:58:55;;;;;;;0.00;0.00;;;;;;;;;;1743920;28;20740;-61
2022/04/13 03:59:46;;;;;;;0.00;0.00;;;;;;;;;;1744915;28;20634;-60
2022/04/13 04:00:38;;;;;;;0.00;0.00;;;;;;;;;;1742041;28;20229;-60
2022/04/13 04:01:31;;;;;;;0.00;0.00;;;;;;;;;;1745293;28;20291;-60
2022/04/13 04:02:23;;;;;;;0.00;0.00;;;;;;;;;;1744702;28;20635;-61
2022/04/13 04:03:14;;;;;;;0.00;0.00;;;;;;;;;;1741313;28;20225;-61
2022/04/13 04:04:08;;;;;;;0.00;0.00;;;;;;;;;;1742910;28;20198;-61
2022/04/13 04:05:02;;;;;;;0.00;0.00;;;;;;;;;;1745152;28;20210;-61
2022/04/13 04:05:55;;;;;;;0.00;0.00;;;;;;;;;;1741662;28;20238;-61
2022/04/13 04:06:46;;;;;;;0.00;0.00;;;;;;;;;;1745428;28;20542;-60
2022/04/13 04:07:38;;;;;;;0.00;0.00;;;;;;;;;;1743547;28;20703;-61
2022/04/13 04:08:33;;;;;;;0.08;0.08;;;;;;;;;;1745447;28;20213;-61
2022/04/13 04:09:25;;;;;;;0.00;0.00;;;;;;;;;;1743437;28;20282;-61
2022/04/13 04:10:17;;;;;;;0.00;0.00;;;;;;;;;;1744339;28;20235;-60
2022/04/13 04:11:09;;;;;;;0.00;0.00;;;;;;;;;;1740808;28;20245;-60
2022/04/13 04:12:00;;;;;;;0.00;0.00;;;;;;;;;;1738645;28;20217;-61
2022/04/13 04:12:55;;;;;;;0.00;0.00;;;;;;;;;;1742832;28;20202;-61
2022/04/13 04:13:46;;;;;;;0.00;0.00;;;;;;;;;;1744770;28;20725;-61
2022/04/13 04:14:40;;;;;;;0.00;0.00;;;;;;;;;;1744601;28;20603;-61
2022/04/13 04:15:31;;;;;;;0.00;0.00;;;;;;;;;;1742264;28;20206;-60
2022/04/13 04:16:23;;;;;;;0.00;0.00;;;;;;;;;;1744013;28;20240;-60
2022/04/13 04:17:14;;;;;;;0.00;0.00;;;;;;;;;;1751881;28;20186;-60
2022/04/13 04:18:07;;;;;;;0.00;0.00;;;;;;;;;;1751665;28;20209;-60
2022/04/13 04:18:59;;;;;;;0.00;0.00;;;;;;;;;;1751524;28;20209;-60
2022/04/13 04:19:51;;;;;;;0.00;0.00;;;;;;;;;;1751823;28;20206;-60
2022/04/13 04:20:42;;;;;;;0.00;0.00;;;;;;;;;;1748426;28;20286;-60
2022/04/13 04:21:34;;;;;;;0.00;0.00;;;;;;;;;;1748617;28;20254;-61
2022/04/13 04:22:26;;;;;;;0.00;0.00;;;;;;;;;;1751417;28;20657;-60
2022/04/13 04:23:18;;;;;;;0.00;0.00;;;;;;;;;;1752103;28;20675;-61
2022/04/13 04:24:09;;;;;;;0.00;0.00;;;;;;;;;;1750979;28;20254;-60
2022/04/13 04:25:02;;;;;;;0.00;0.00;;;;;;;;;;1752272;28;20209;-61
2022/04/13 04:25:55;;;;;;;0.00;0.00;;;;;;;;;;1748015;28;20271;-61
2022/04/13 04:26:47;;;;;;;0.00;0.00;;;;;;;;;;1752300;28;20198;-60
2022/04/13 04:27:38;;;;;;;0.00;0.00;;;;;;;;;;1751553;28;20197;-60
2022/04/13 04:28:31;;;;;;;0.00;0.00;;;;;;;;;;1751456;28;20197;-61
2022/04/13 04:29:22;;;;;;;0.00;0.00;;;;;;;;;;1750465;28;20198;-61
2022/04/13 04:30:15;;;;;;;0.00;0.00;;;;;;;;;;1753231;28;20617;-61
2022/04/13 04:31:06;;;;;;;0.00;0.00;;;;;;;;;;1749793;28;20229;-60
2022/04/13 04:31:59;;;;;;;0.00;0.00;;;;;;;;;;1752004;28;20208;-61
2022/04/13 04:32:51;;;;;;;0.00;0.00;;;;;;;;;;1750853;28;20201;-59
2022/04/13 04:33:43;;;;;;;0.00;0.00;;;;;;;;;;1751981;28;20202;-59
2022/04/13 04:34:35;;;;;;;0.00;0.00;;;;;;;;;;1751080;28;20280;-60
2022/04/13 04:35:26;;;;;;;0.00;0.00;;;;;;;;;;1748970;28;20241;-60
2022/04/13 04:36:18;;;;;;;0.00;0.00;;;;;;;;;;1750271;28;20288;-60
2022/04/13 04:37:09;;;;;;;0.00;0.00;;;;;;;;;;1752403;28;20697;-60
2022/04/13 04:38:01;;;;;;;0.00;0.00;;;;;;;;;;1751463;28;20664;-61
2022/04/13 04:38:53;;;;;;;0.00;0.00;;;;;;;;;;1752006;28;20224;-59
2022/04/13 04:39:45;;;;;;;0.00;0.00;;;;;;;;;;1751869;28;20201;-59
2022/04/13 04:40:36;;;;;;;0.00;0.00;;;;;;;;;;1744489;28;20245;-61
2022/04/13 04:41:28;;;;;;;0.00;0.00;;;;;;;;;;1750605;28;20208;-61
2022/04/13 04:42:20;;;;;;;0.00;0.00;;;;;;;;;;1751367;28;20206;-61
2022/04/13 04:43:12;;;;;;;0.00;0.00;;;;;;;;;;1752425;28;20251;-60
2022/04/13 04:44:03;;;;;;;0.00;0.00;;;;;;;;;;1751054;28;20779;-60
2022/04/13 04:44:57;;;;;;;0.00;0.00;;;;;;;;;;1751989;28;20699;-60
2022/04/13 04:47:24;;;;;;;0.00;0.00;;;;;;;;;;1733605;28;20198;-60
2022/04/13 04:48:31;;;;;;;0.00;0.00;;;;;;;;;;1749726;28;20206;-61
2022/04/13 04:49:31;;;;;;;0.00;0.00;;;;;;;;;;1728839;28;20204;-60
2022/04/13 05:03:11;;;;;;;0.00;0.00;;;;;;;;;;1634647;30;20223;-61
2022/04/13 05:04:03;;;;;;;0.00;0.00;;;;;;;;;;1645890;29;20201;-61
2022/04/13 05:04:55;;;;;;;0.00;0.00;;;;;;;;;;1656046;29;20738;-60
2022/04/13 05:05:46;;;;;;;0.00;0.00;;;;;;;;;;1661320;29;20241;-61
2022/04/13 05:06:38;;;;;;;0.00;0.00;;;;;;;;;;1664366;29;20202;-61
2022/04/13 05:07:29;;;;;;;0.00;0.00;;;;;;;;;;1663982;29;20218;-60
2022/04/13 05:08:22;;;;;;;0.00;0.00;;;;;;;;;;1664876;29;20599;-60
2022/04/13 05:09:13;;;;;;;0.00;0.00;;;;;;;;;;1664998;29;20220;-61
2022/04/13 05:10:06;;;;;;;0.00;0.00;;;;;;;;;;1664445;29;20727;-61
2022/04/13 05:10:58;;;;;;;0.00;0.00;;;;;;;;;;1662338;29;20250;-61
2022/04/13 05:11:51;;;;;;;0.00;0.00;;;;;;;;;;1664422;29;20221;-61
2022/04/13 05:12:43;;;;;;;0.00;0.00;;;;;;;;;;1663745;29;20211;-61
2022/04/13 05:13:35;;;;;;;0.00;0.00;;;;;;;;;;1665033;29;20658;-59
2022/04/13 05:14:29;;;;;;;0.00;0.00;;;;;;;;;;1665826;29;20246;-61
2022/04/13 05:15:21;;;;;;;0.00;0.00;;;;;;;;;;1666237;29;20206;-61
2022/04/13 05:16:13;;;;;;;0.00;0.00;;;;;;;;;;1663589;29;20257;-60
2022/04/13 05:17:05;;;;;;;0.00;0.00;;;;;;;;;;1672265;29;20373;-60
2022/04/13 05:17:56;;;;;;;0.00;0.00;;;;;;;;;;1671779;29;21037;-61
2022/04/13 05:18:50;;;;;;;0.00;0.00;;;;;;;;;;1671645;29;20801;-59
2022/04/13 05:19:41;;;;;;;0.00;0.00;;;;;;;;;;1672191;29;20206;-58
2022/04/13 05:20:33;;;;;;;0.00;0.00;;;;;;;;;;1673129;29;20241;-60
2022/04/13 05:21:24;;;;;;;0.00;0.00;;;;;;;;;;1679199;29;20209;-60
2022/04/13 05:22:17;;;;;;;0.00;0.00;;;;;;;;;;1677981;29;20256;-59
2022/04/13 05:23:08;;;;;;;0.00;0.00;;;;;;;;;;1677429;29;20220;-60
2022/04/13 05:24:00;;;;;;;0.00;0.00;;;;;;;;;;1677024;29;20205;-60
2022/04/13 05:24:51;;;;;;;0.00;0.00;;;;;;;;;;1674353;29;20601;-60
2022/04/13 05:25:46;;;;;;;0.00;0.00;;;;;;;;;;1675210;29;20233;-60
2022/04/13 05:26:38;;;;;;;0.00;0.00;;;;;;;;;;1676283;29;20210;-61
2022/04/13 05:27:31;;;;;;;0.00;0.00;;;;;;;;;;1678995;29;20605;-60